Time;durP1;ratioP1;P1;durP2;ratioP2;P2;SDS_P1;SDS_P2;PMS_P1;PMS_P2;Temp;Humidity;BMP_temperature;BMP_pressure;BME280_temperature;BME280_humidity;BME280_pressure;Samples;Min_cycle;Max_cycle;Signal;HPM_P1;HPM_P2
2023/04/04 00:00:24;;;;;;;0.80;0.80;;;;;0.20;96638.00;;;;5076365;28;20201;-64
2023/04/04 00:02:51;;;;;;;0.90;0.90;;;;;0.10;96635.00;;;;5075939;28;20712;-65
2023/04/04 00:05:19;;;;;;;1.20;1.10;;;;;0.10;96629.00;;;;5076179;28;20250;-64
2023/04/04 00:07:46;;;;;;;0.80;0.80;;;;;0.00;96634.00;;;;5075981;28;20218;-65
2023/04/04 00:10:16;;;;;;;0.80;0.80;;;;;0.00;96625.00;;;;5075956;28;20284;-65
2023/04/04 00:12:43;;;;;;;0.90;0.90;;;;;0.00;96625.00;;;;5074576;28;20227;-64
2023/04/04 00:15:11;;;;;;;0.90;0.90;;;;;0.10;96625.00;;;;5075890;28;20239;-66
2023/04/04 00:17:39;;;;;;;4.07;1.37;;;;;0.00;96627.00;;;;5075870;28;20192;-65
2023/04/04 00:20:08;;;;;;;0.80;0.80;;;;;0.00;96624.00;;;;5075824;28;20196;-65
2023/04/04 00:22:36;;;;;;;0.80;0.80;;;;;0.00;96615.00;;;;5075700;28;20225;-65
2023/04/04 00:25:03;;;;;;;0.97;0.97;;;;;-0.10;96612.00;;;;5075729;28;20201;-65
2023/04/04 00:27:32;;;;;;;0.80;0.80;;;;;-0.10;96618.00;;;;5075651;28;20203;-64
2023/04/04 00:29:59;;;;;;;0.70;0.70;;;;;-0.10;96605.00;;;;5075838;28;20202;-64
2023/04/04 00:32:27;;;;;;;0.70;0.70;;;;;-0.20;96606.00;;;;5075526;28;20212;-65
2023/04/04 00:34:56;;;;;;;0.70;0.70;;;;;-0.20;96608.00;;;;5075785;28;20219;-65
2023/04/04 00:37:23;;;;;;;1.07;1.07;;;;;-0.20;96614.00;;;;5075528;28;20667;-65
2023/04/04 00:39:50;;;;;;;0.60;0.60;;;;;-0.40;96608.00;;;;5075367;28;20192;-65
2023/04/04 00:42:18;;;;;;;0.77;0.77;;;;;-0.40;96608.00;;;;5075825;28;20208;-65
2023/04/04 00:44:46;;;;;;;0.80;0.80;;;;;-0.60;96606.00;;;;5075555;28;20223;-65
2023/04/04 00:47:15;;;;;;;1.00;1.00;;;;;-0.60;96610.00;;;;5075290;28;20197;-65
2023/04/04 00:49:44;;;;;;;0.70;0.70;;;;;-0.50;96602.00;;;;5075785;28;20275;-65
2023/04/04 00:52:12;;;;;;;0.97;0.97;;;;;-0.50;96600.00;;;;5075144;28;20223;-66
2023/04/04 00:54:40;;;;;;;1.10;1.10;;;;;-0.50;96601.00;;;;5076107;28;20593;-65
2023/04/04 00:57:08;;;;;;;1.20;1.13;;;;;-0.60;96591.00;;;;5075369;28;20562;-65
2023/04/04 00:59:36;;;;;;;0.90;0.90;;;;;-0.60;96598.00;;;;5075059;28;20197;-65
2023/04/04 01:02:05;;;;;;;0.93;0.93;;;;;-0.60;96607.00;;;;5075927;28;20255;-65
2023/04/04 01:04:33;;;;;;;1.00;1.00;;;;;-0.60;96586.00;;;;5075422;28;20216;-65
2023/04/04 01:07:01;;;;;;;0.83;0.83;;;;;-0.70;96593.00;;;;5073536;28;20539;-65
2023/04/04 01:09:29;;;;;;;0.70;0.70;;;;;-0.70;96583.00;;;;5075436;28;20211;-65
2023/04/04 01:11:57;;;;;;;2.67;0.70;;;;;-0.70;96589.00;;;;5074889;28;20192;-63
2023/04/04 01:14:25;;;;;;;1.00;1.00;;;;;-0.70;96587.00;;;;5074687;28;20691;-65
2023/04/04 01:16:53;;;;;;;1.17;1.17;;;;;-0.80;96589.00;;;;5074905;28;20196;-66
2023/04/04 01:19:30;;;;;;;0.70;0.70;;;;;-0.80;96581.00;;;;5074622;28;20219;-64
2023/04/04 01:22:01;;;;;;;0.70;0.70;;;;;-0.90;96571.00;;;;5074791;28;20180;-63
2023/04/04 01:24:33;;;;;;;0.90;0.90;;;;;-0.80;96586.00;;;;5074714;28;20227;-66
2023/04/04 01:27:02;;;;;;;1.33;1.27;;;;;-0.80;96579.00;;;;5075047;28;20189;-66
2023/04/04 01:29:29;;;;;;;0.70;0.70;;;;;-0.70;96576.00;;;;5074503;28;20200;-66
2023/04/04 01:32:04;;;;;;;0.83;0.83;;;;;-0.70;96576.00;;;;5074375;28;20191;-65
2023/04/04 01:34:40;;;;;;;0.60;0.60;;;;;-0.80;96575.00;;;;5074612;28;20180;-65
2023/04/04 01:37:11;;;;;;;0.70;0.70;;;;;-1.00;96583.00;;;;5074424;28;20547;-65
2023/04/04 01:39:43;;;;;;;0.70;0.70;;;;;-1.20;96571.00;;;;5074486;28;20188;-65
2023/04/04 01:42:12;;;;;;;0.80;0.80;;;;;-1.20;96574.00;;;;5074698;28;20621;-65
2023/04/04 01:44:40;;;;;;;0.87;0.87;;;;;-1.10;96568.00;;;;5074055;28;20216;-65
2023/04/04 01:47:08;;;;;;;1.33;1.23;;;;;-1.10;96574.00;;;;5074304;28;20562;-65
2023/04/04 01:49:35;;;;;;;0.70;0.70;;;;;-1.10;96569.00;;;;5072709;28;20759;-66
2023/04/04 01:52:05;;;;;;;0.70;0.70;;;;;-1.10;96584.00;;;;5074427;28;20558;-66
2023/04/04 01:54:34;;;;;;;0.90;0.90;;;;;-1.10;96570.00;;;;5074163;28;20199;-66
2023/04/04 01:57:02;;;;;;;1.00;1.00;;;;;-1.10;96570.00;;;;5074432;28;20199;-66
2023/04/04 01:59:30;;;;;;;1.10;1.10;;;;;-1.10;96569.00;;;;5074147;28;20237;-66
2023/04/04 02:01:58;;;;;;;0.77;0.77;;;;;-1.10;96568.00;;;;5072425;28;20728;-66
2023/04/04 02:04:25;;;;;;;0.80;0.80;;;;;-1.10;96572.00;;;;5073772;28;20225;-65
2023/04/04 02:06:54;;;;;;;1.77;0.83;;;;;-1.00;96574.00;;;;5072460;28;20200;-66
2023/04/04 02:09:22;;;;;;;0.77;0.77;;;;;-1.10;96571.00;;;;5073699;28;20195;-66
2023/04/04 02:11:49;;;;;;;0.83;0.83;;;;;-1.00;96563.00;;;;5073598;28;20259;-64
2023/04/04 02:14:16;;;;;;;0.70;0.70;;;;;-0.90;96563.00;;;;5073639;28;20271;-65
2023/04/04 02:16:45;;;;;;;0.87;0.87;;;;;-0.90;96567.00;;;;5073532;28;20227;-66
2023/04/04 02:19:13;;;;;;;0.87;0.87;;;;;-0.90;96571.00;;;;5073069;28;20220;-66
2023/04/04 02:21:40;;;;;;;0.80;0.80;;;;;-1.10;96575.00;;;;5073387;28;20233;-65
2023/04/04 02:24:08;;;;;;;1.10;1.10;;;;;-1.10;96579.00;;;;5073172;28;20597;-66
2023/04/04 02:26:36;;;;;;;1.47;1.37;;;;;-1.20;96567.00;;;;5073262;28;20241;-66
2023/04/04 02:29:03;;;;;;;1.00;1.00;;;;;-1.20;96567.00;;;;5073579;28;20234;-66
2023/04/04 02:31:31;;;;;;;0.80;0.80;;;;;-1.20;96573.00;;;;5073581;28;20198;-66
2023/04/04 02:33:59;;;;;;;1.00;1.00;;;;;-1.10;96565.00;;;;5073144;28;20215;-66
2023/04/04 02:36:27;;;;;;;0.90;0.90;;;;;-1.00;96565.00;;;;5073294;28;20199;-66
2023/04/04 02:38:55;;;;;;;1.00;1.00;;;;;-1.20;96573.00;;;;5073171;28;20200;-66
2023/04/04 02:41:22;;;;;;;1.03;1.03;;;;;-1.20;96566.00;;;;5073411;28;20249;-67
2023/04/04 02:43:50;;;;;;;0.70;0.70;;;;;-1.30;96562.00;;;;5073207;28;20242;-65
2023/04/04 02:46:17;;;;;;;0.93;0.93;;;;;-1.40;96568.00;;;;5072031;28;20278;-65
2023/04/04 02:48:45;;;;;;;0.80;0.80;;;;;-1.50;96565.00;;;;5071804;28;20681;-65
2023/04/04 02:51:13;;;;;;;0.67;0.67;;;;;-1.50;96561.00;;;;5073250;28;20204;-65
2023/04/04 02:53:41;;;;;;;1.00;1.00;;;;;-1.50;96568.00;;;;5073303;28;20699;-65
2023/04/04 02:56:08;;;;;;;0.70;0.70;;;;;-1.50;96559.00;;;;5073080;28;20203;-65
2023/04/04 02:58:36;;;;;;;0.80;0.80;;;;;-1.50;96560.00;;;;5073272;28;20197;-66
2023/04/04 03:01:03;;;;;;;0.90;0.90;;;;;-1.40;96558.00;;;;5072924;28;20246;-65
2023/04/04 03:03:31;;;;;;;1.10;1.10;;;;;-1.50;96561.00;;;;5073113;28;20285;-66
2023/04/04 03:05:59;;;;;;;0.80;0.80;;;;;-1.60;96564.00;;;;5073466;28;20187;-65
2023/04/04 03:08:28;;;;;;;0.73;0.73;;;;;-1.50;96558.00;;;;5073340;28;20198;-66
2023/04/04 03:10:55;;;;;;;0.70;0.70;;;;;-1.60;96562.00;;;;5072839;28;20195;-65
2023/04/04 03:13:23;;;;;;;0.67;0.67;;;;;-1.40;96558.00;;;;5072728;28;20686;-66
2023/04/04 03:15:50;;;;;;;1.30;1.20;;;;;-1.60;96557.00;;;;5072841;28;20214;-66
2023/04/04 03:18:18;;;;;;;0.77;0.77;;;;;-1.70;96552.00;;;;5073009;28;20187;-66
2023/04/04 03:20:45;;;;;;;0.80;0.80;;;;;-1.60;96554.00;;;;5072828;28;20258;-66
2023/04/04 03:23:12;;;;;;;0.80;0.80;;;;;-1.60;96555.00;;;;5073023;28;20226;-65
2023/04/04 03:25:41;;;;;;;1.23;1.13;;;;;-1.60;96545.00;;;;5073155;28;20218;-67
2023/04/04 03:28:09;;;;;;;0.80;0.80;;;;;-1.60;96551.00;;;;5073190;28;20198;-65
2023/04/04 03:30:36;;;;;;;0.90;0.90;;;;;-1.50;96549.00;;;;5073539;28;20280;-66
2023/04/04 03:33:07;;;;;;;0.77;0.77;;;;;-1.40;96558.00;;;;5076911;28;20576;-66
2023/04/04 03:35:37;;;;;;;0.70;0.70;;;;;-1.40;96559.00;;;;5076708;28;20244;-65
2023/04/04 03:38:04;;;;;;;2.10;1.23;;;;;-1.50;96549.00;;;;5076614;28;20180;-65
2023/04/04 03:40:32;;;;;;;0.80;0.80;;;;;-1.50;96547.00;;;;5076530;28;20219;-66
2023/04/04 03:43:01;;;;;;;0.97;0.97;;;;;-1.70;96538.00;;;;5076335;28;20276;-65
2023/04/04 03:45:28;;;;;;;0.70;0.70;;;;;-1.60;96546.00;;;;5076813;28;20223;-64
2023/04/04 03:47:56;;;;;;;3.60;1.20;;;;;-1.70;96558.00;;;;5076322;28;20188;-65
2023/04/04 03:50:23;;;;;;;0.87;0.87;;;;;-1.70;96554.00;;;;5076498;28;20191;-64
2023/04/04 03:52:51;;;;;;;0.90;0.90;;;;;-1.90;96560.00;;;;5076111;28;20218;-63
2023/04/04 03:55:18;;;;;;;1.40;1.40;;;;;-1.90;96556.00;;;;5074939;28;20557;-65
2023/04/04 03:57:46;;;;;;;0.70;0.70;;;;;-2.00;96555.00;;;;5076539;28;20192;-65
2023/04/04 04:00:15;;;;;;;0.80;0.80;;;;;-2.00;96554.00;;;;5076197;28;20670;-65
2023/04/04 04:02:42;;;;;;;0.90;0.90;;;;;-1.90;96555.00;;;;5074783;28;20230;-64
2023/04/04 04:05:10;;;;;;;0.70;0.70;;;;;-2.00;96554.00;;;;5074699;28;20712;-65
2023/04/04 04:07:38;;;;;;;0.80;0.80;;;;;-1.90;96549.00;;;;5074756;28;20191;-67
2023/04/04 04:10:06;;;;;;;0.80;0.80;;;;;-1.80;96557.00;;;;5075930;28;20237;-65
2023/04/04 04:12:33;;;;;;;0.70;0.70;;;;;-1.90;96557.00;;;;5075794;28;20219;-65
2023/04/04 04:15:00;;;;;;;0.70;0.70;;;;;-1.80;96550.00;;;;5076121;28;20187;-65
2023/04/04 04:17:29;;;;;;;1.00;1.00;;;;;-1.80;96557.00;;;;5076161;28;20187;-65
2023/04/04 04:19:56;;;;;;;1.37;1.37;;;;;-1.90;96554.00;;;;5075900;28;20191;-65
2023/04/04 04:22:24;;;;;;;0.70;0.70;;;;;-2.00;96561.00;;;;5076299;28;20288;-66
2023/04/04 04:24:51;;;;;;;0.83;0.83;;;;;-2.00;96556.00;;;;5075898;28;20204;-65
2023/04/04 04:27:18;;;;;;;0.70;0.70;;;;;-2.00;96566.00;;;;5076193;28;20248;-66
2023/04/04 04:29:46;;;;;;;1.77;1.30;;;;;-2.00;96557.00;;;;5075551;28;20202;-65
2023/04/04 04:32:16;;;;;;;0.80;0.80;;;;;-1.90;96555.00;;;;5075894;28;20220;-64
2023/04/04 04:34:45;;;;;;;4.90;1.57;;;;;-2.00;96555.00;;;;5075460;28;20721;-65
2023/04/04 04:37:13;;;;;;;0.90;0.90;;;;;-2.00;96554.00;;;;5074230;28;20202;-66
2023/04/04 04:39:40;;;;;;;0.90;0.90;;;;;-1.90;96560.00;;;;5075388;28;20281;-65
2023/04/04 04:42:07;;;;;;;0.80;0.80;;;;;-1.90;96543.00;;;;5075262;28;20197;-64
2023/04/04 04:44:35;;;;;;;0.80;0.80;;;;;-2.00;96556.00;;;;5075392;28;20262;-65
2023/04/04 04:47:04;;;;;;;1.13;1.13;;;;;-1.90;96558.00;;;;5075254;28;20202;-65
2023/04/04 04:49:31;;;;;;;1.03;1.03;;;;;-2.10;96563.00;;;;5075467;28;20188;-65
2023/04/04 04:52:01;;;;;;;1.10;1.10;;;;;-2.10;96553.00;;;;5075049;28;20232;-64
2023/04/04 04:54:28;;;;;;;1.07;1.07;;;;;-2.00;96556.00;;;;5075031;28;20187;-64
2023/04/04 04:56:56;;;;;;;2.60;2.40;;;;;-1.90;96560.00;;;;5075007;28;20228;-65
2023/04/04 04:59:23;;;;;;;0.90;0.90;;;;;-2.10;96559.00;;;;5075131;28;20223;-66
2023/04/04 05:01:50;;;;;;;1.00;1.00;;;;;-2.00;96559.00;;;;5074891;28;20198;-64
2023/04/04 05:04:18;;;;;;;1.13;1.13;;;;;-2.00;96553.00;;;;5074805;28;20236;-66
2023/04/04 05:06:45;;;;;;;0.93;0.93;;;;;-2.00;96550.00;;;;5074864;28;20199;-66
2023/04/04 05:09:14;;;;;;;0.90;0.90;;;;;-2.10;96554.00;;;;5074840;28;20203;-66
2023/04/04 05:11:41;;;;;;;1.43;1.43;;;;;-2.10;96550.00;;;;5074761;28;20241;-66
2023/04/04 05:14:09;;;;;;;1.30;1.30;;;;;-2.10;96552.00;;;;5074714;28;20268;-66
2023/04/04 05:16:36;;;;;;;1.07;1.07;;;;;-2.10;96556.00;;;;5074906;28;20250;-64
2023/04/04 05:19:04;;;;;;;1.37;1.27;;;;;-2.10;96560.00;;;;5074903;28;20199;-64
2023/04/04 05:21:31;;;;;;;1.20;1.20;;;;;-2.10;96557.00;;;;5075134;28;20195;-66
2023/04/04 05:23:59;;;;;;;1.37;1.37;;;;;-2.00;96565.00;;;;5074290;28;20219;-64
2023/04/04 05:26:28;;;;;;;4.30;1.93;;;;;-1.80;96568.00;;;;5073161;28;20730;-64
2023/04/04 05:28:58;;;;;;;1.10;1.10;;;;;-1.90;96565.00;;;;5074487;28;20201;-65
2023/04/04 05:31:26;;;;;;;1.70;1.60;;;;;-1.70;96559.00;;;;5074607;28;20230;-65
2023/04/04 05:33:53;;;;;;;1.40;1.30;;;;;-1.70;96570.00;;;;5074654;28;20234;-65
2023/04/04 05:36:20;;;;;;;1.27;1.20;;;;;-1.70;96576.00;;;;5074677;28;20187;-65
2023/04/04 05:38:48;;;;;;;2.00;1.73;;;;;-1.60;96584.00;;;;5074247;28;20191;-64
2023/04/04 05:41:15;;;;;;;0.93;0.93;;;;;-1.70;96573.00;;;;5074158;28;20221;-64
2023/04/04 05:43:44;;;;;;;1.73;1.60;;;;;-1.50;96569.00;;;;5074373;28;20219;-64
2023/04/04 05:46:11;;;;;;;0.90;0.90;;;;;-1.50;96576.00;;;;5074376;28;20227;-64
2023/04/04 05:48:39;;;;;;;1.63;1.53;;;;;-1.50;96584.00;;;;5074157;28;20195;-64
2023/04/04 05:51:06;;;;;;;1.00;1.00;;;;;-1.40;96583.00;;;;5072753;28;20210;-65
2023/04/04 05:53:33;;;;;;;6.23;1.30;;;;;-1.30;96585.00;;;;5073729;28;20272;-66
2023/04/04 05:56:01;;;;;;;1.33;1.13;;;;;-1.30;96582.00;;;;5073603;28;20188;-64
2023/04/04 05:58:28;;;;;;;1.03;1.03;;;;;-1.30;96593.00;;;;5074000;28;20215;-66
2023/04/04 06:00:57;;;;;;;1.00;1.00;;;;;-1.40;96581.00;;;;5073842;28;20199;-65
2023/04/04 06:03:24;;;;;;;1.07;1.07;;;;;-1.30;96586.00;;;;5073846;28;20223;-64
2023/04/04 06:05:52;;;;;;;0.83;0.83;;;;;-1.30;96594.00;;;;5072445;28;20305;-67
2023/04/04 06:08:20;;;;;;;1.10;1.10;;;;;-1.20;96594.00;;;;5073644;28;20663;-65
2023/04/04 06:10:47;;;;;;;0.90;0.90;;;;;-1.10;96573.00;;;;5073620;28;20256;-67
2023/04/04 06:13:15;;;;;;;1.07;1.07;;;;;-1.20;96581.00;;;;5073691;28;20215;-66
2023/04/04 06:15:42;;;;;;;1.37;1.27;;;;;-1.00;96578.00;;;;5073574;28;20678;-65
2023/04/04 06:18:11;;;;;;;0.80;0.80;;;;;-1.00;96577.00;;;;5073470;28;20655;-65
2023/04/04 06:20:40;;;;;;;0.80;0.80;;;;;-0.90;96587.00;;;;5073495;28;20193;-67
2023/04/04 06:23:08;;;;;;;1.03;1.03;;;;;-1.00;96579.00;;;;5073210;28;20314;-65
2023/04/04 06:25:36;;;;;;;0.93;0.93;;;;;-1.00;96578.00;;;;5073309;28;20219;-65
2023/04/04 06:28:04;;;;;;;1.23;1.23;;;;;-0.90;96586.00;;;;5073316;28;20303;-65
2023/04/04 06:30:35;;;;;;;1.20;1.10;;;;;-1.00;96580.00;;;;5073364;28;20191;-65
2023/04/04 06:33:02;;;;;;;0.70;0.70;;;;;-0.90;96573.00;;;;5073559;28;20570;-66
2023/04/04 06:35:31;;;;;;;1.00;1.00;;;;;-0.80;96581.00;;;;5071956;28;20666;-65
2023/04/04 06:37:58;;;;;;;0.83;0.83;;;;;-0.80;96582.00;;;;5073437;28;20559;-65
2023/04/04 06:40:26;;;;;;;0.77;0.77;;;;;-0.70;96579.00;;;;5073428;28;20191;-66
2023/04/04 06:42:56;;;;;;;0.80;0.80;;;;;-0.60;96589.00;;;;5073191;28;20289;-65
2023/04/04 06:45:24;;;;;;;1.97;1.50;;;;;-0.50;96580.00;;;;5073695;28;20200;-66
2023/04/04 06:47:52;;;;;;;0.80;0.80;;;;;-0.60;96581.00;;;;5073410;28;20250;-65
2023/04/04 06:50:20;;;;;;;0.73;0.73;;;;;-0.50;96581.00;;;;5069970;28;20218;-64
2023/04/04 06:52:49;;;;;;;1.40;1.30;;;;;-0.50;96575.00;;;;5070070;28;20219;-61
2023/04/04 06:55:17;;;;;;;1.17;1.17;;;;;-0.20;96575.00;;;;5069780;28;20318;-61
2023/04/04 06:57:45;;;;;;;1.23;1.13;;;;;0.00;96560.00;;;;5071076;28;20199;-61
2023/04/04 07:00:13;;;;;;;1.20;1.20;;;;;0.00;96570.00;;;;5070015;28;20210;-62
2023/04/04 07:02:41;;;;;;;1.50;1.13;;;;;0.30;96559.00;;;;5071320;28;20698;-59
2023/04/04 07:05:09;;;;;;;1.10;1.10;;;;;0.20;96563.00;;;;5068569;28;20213;-62
2023/04/04 07:07:37;;;;;;;1.00;0.97;;;;;0.50;96561.00;;;;5070475;28;20196;-62
2023/04/04 07:10:06;;;;;;;1.40;1.40;;;;;0.70;96564.00;;;;5070838;28;20204;-62
2023/04/04 07:12:33;;;;;;;0.80;0.80;;;;;0.60;96559.00;;;;5070534;28;20224;-62
2023/04/04 07:15:01;;;;;;;0.70;0.70;;;;;0.60;96561.00;;;;5068856;28;20210;-62
2023/04/04 07:17:28;;;;;;;0.97;0.97;;;;;0.80;96570.00;;;;5069073;28;20199;-62
2023/04/04 07:19:56;;;;;;;1.20;1.20;;;;;0.90;96566.00;;;;5070382;28;20203;-62
2023/04/04 07:22:23;;;;;;;0.70;0.70;;;;;0.80;96568.00;;;;5070741;28;20217;-62
2023/04/04 07:24:51;;;;;;;0.90;0.90;;;;;0.50;96573.00;;;;5070241;28;20193;-62
2023/04/04 07:27:19;;;;;;;0.90;0.90;;;;;0.80;96572.00;;;;5070311;28;20881;-62
2023/04/04 07:29:47;;;;;;;0.90;0.90;;;;;1.00;96573.00;;;;5070698;28;20237;-62
2023/04/04 07:32:14;;;;;;;0.80;0.80;;;;;1.20;96575.00;;;;5069181;28;20221;-62
2023/04/04 07:34:41;;;;;;;1.10;1.10;;;;;1.20;96563.00;;;;5070674;28;20206;-62
2023/04/04 07:37:09;;;;;;;2.93;1.30;;;;;1.10;96570.00;;;;5070616;28;20202;-62
2023/04/04 07:39:36;;;;;;;0.90;0.90;;;;;1.40;96566.00;;;;5069688;28;20213;-62
2023/04/04 07:42:04;;;;;;;0.70;0.70;;;;;1.60;96559.00;;;;5069786;28;20197;-62
2023/04/04 07:44:32;;;;;;;0.90;0.90;;;;;1.30;96560.00;;;;5069354;28;20197;-62
2023/04/04 07:47:00;;;;;;;1.17;1.17;;;;;1.20;96557.00;;;;5069704;28;20221;-62
2023/04/04 07:49:27;;;;;;;0.90;0.90;;;;;1.40;96564.00;;;;5070336;28;20195;-62
2023/04/04 07:51:55;;;;;;;1.17;1.17;;;;;1.60;96558.00;;;;5069630;28;20566;-61
2023/04/04 07:54:23;;;;;;;1.20;1.20;;;;;1.80;96560.00;;;;5070365;28;20276;-62
2023/04/04 07:56:50;;;;;;;0.90;0.90;;;;;1.90;96569.00;;;;5070333;28;20194;-62
2023/04/04 07:59:18;;;;;;;1.13;1.13;;;;;1.80;96554.00;;;;5070333;28;20203;-62
2023/04/04 08:01:46;;;;;;;0.90;0.90;;;;;2.10;96567.00;;;;5069294;28;20206;-62
2023/04/04 08:04:14;;;;;;;1.03;1.03;;;;;1.80;96561.00;;;;5070257;28;20194;-62
2023/04/04 08:06:41;;;;;;;8.67;1.17;;;;;1.90;96566.00;;;;5070302;28;20586;-62
2023/04/04 08:09:09;;;;;;;0.80;0.80;;;;;2.10;96559.00;;;;5070301;28;20198;-62
2023/04/04 08:11:36;;;;;;;1.37;1.27;;;;;2.40;96557.00;;;;5070558;28;20599;-62
2023/04/04 08:14:04;;;;;;;1.70;1.20;;;;;2.20;96563.00;;;;5070582;28;20221;-62
2023/04/04 08:16:32;;;;;;;1.20;1.20;;;;;2.20;96564.00;;;;5068911;28;20273;-62
2023/04/04 08:19:02;;;;;;;0.83;0.83;;;;;2.00;96550.00;;;;5072071;28;20210;-62
2023/04/04 08:21:30;;;;;;;1.03;1.03;;;;;2.50;96563.00;;;;5073035;28;20199;-62
2023/04/04 08:23:58;;;;;;;0.87;0.87;;;;;2.40;96564.00;;;;5073941;28;20279;-62
2023/04/04 08:26:25;;;;;;;1.07;1.07;;;;;2.30;96560.00;;;;5073280;28;20583;-62
2023/04/04 08:28:53;;;;;;;1.03;1.03;;;;;2.30;96555.00;;;;5073987;28;20213;-60
2023/04/04 08:31:21;;;;;;;2.03;1.83;;;;;2.20;96560.00;;;;5073477;28;20195;-61
2023/04/04 08:33:48;;;;;;;0.80;0.80;;;;;2.40;96565.00;;;;5073724;28;20223;-60
2023/04/04 08:36:17;;;;;;;1.00;1.00;;;;;2.70;96553.00;;;;5073575;28;20199;-61
2023/04/04 08:38:45;;;;;;;1.03;1.03;;;;;2.90;96560.00;;;;5073577;28;20230;-60
2023/04/04 08:41:14;;;;;;;1.37;1.10;;;;;3.00;96560.00;;;;5073575;28;20210;-62
2023/04/04 08:43:45;;;;;;;1.00;1.00;;;;;3.10;96553.00;;;;5073952;28;20281;-61
2023/04/04 08:46:14;;;;;;;0.80;0.80;;;;;3.10;96560.00;;;;5073215;28;20242;-62
2023/04/04 08:48:44;;;;;;;0.83;0.83;;;;;3.10;96553.00;;;;5073851;28;20629;-62
2023/04/04 08:51:13;;;;;;;0.80;0.80;;;;;3.40;96560.00;;;;5072894;28;20202;-62
2023/04/04 08:53:42;;;;;;;0.80;0.80;;;;;3.40;96561.00;;;;5073498;28;20211;-61
2023/04/04 08:56:10;;;;;;;1.13;1.13;;;;;3.60;96561.00;;;;5072978;28;20282;-62
2023/04/04 08:58:38;;;;;;;0.70;0.70;;;;;3.60;96566.00;;;;5073363;28;20199;-61
2023/04/04 09:01:06;;;;;;;0.93;0.93;;;;;3.50;96564.00;;;;5072734;28;20203;-61
2023/04/04 09:03:35;;;;;;;1.10;1.10;;;;;3.30;96563.00;;;;5073338;28;20714;-61
2023/04/04 09:06:04;;;;;;;1.00;1.00;;;;;3.40;96562.00;;;;5072616;28;20303;-62
2023/04/04 09:08:31;;;;;;;1.43;1.43;;;;;3.70;96567.00;;;;5072932;28;20226;-61
2023/04/04 09:11:03;;;;;;;1.93;1.83;;;;;3.80;96571.00;;;;5072712;28;20539;-61
2023/04/04 09:13:31;;;;;;;1.77;1.67;;;;;3.70;96566.00;;;;5073209;28;20338;-61
2023/04/04 09:16:00;;;;;;;1.30;1.20;;;;;3.80;96570.00;;;;5072358;28;20199;-61
2023/04/04 09:18:28;;;;;;;1.03;1.03;;;;;3.70;96570.00;;;;5073116;28;20210;-61
2023/04/04 09:20:56;;;;;;;1.50;0.97;;;;;4.10;96566.00;;;;5072180;28;20337;-62
2023/04/04 09:23:24;;;;;;;0.97;0.97;;;;;4.20;96576.00;;;;5072743;28;20246;-62
2023/04/04 09:25:52;;;;;;;1.43;1.33;;;;;4.10;96564.00;;;;5072050;28;20223;-61
2023/04/04 09:28:22;;;;;;;1.23;1.13;;;;;4.00;96562.00;;;;5072533;28;20274;-62
2023/04/04 09:30:50;;;;;;;0.70;0.70;;;;;4.10;96557.00;;;;5072177;28;20579;-61
2023/04/04 09:33:19;;;;;;;1.00;1.00;;;;;4.30;96560.00;;;;5072563;28;20211;-62
2023/04/04 09:35:51;;;;;;;1.43;1.33;;;;;3.80;96574.00;;;;5071957;28;20207;-61
2023/04/04 09:38:21;;;;;;;2.63;1.20;;;;;4.00;96560.00;;;;5072583;28;20638;-61
2023/04/04 09:40:48;;;;;;;1.00;1.00;;;;;3.90;96567.00;;;;5072092;28;20206;-62
2023/04/04 09:43:16;;;;;;;0.70;0.70;;;;;3.80;96566.00;;;;5072127;28;20307;-61
2023/04/04 09:45:46;;;;;;;0.87;0.87;;;;;4.20;96558.00;;;;5071954;28;20201;-62
2023/04/04 09:48:24;;;;;;;1.57;1.17;;;;;4.50;96567.00;;;;5067695;28;20651;-61
2023/04/04 09:50:52;;;;;;;0.70;0.70;;;;;4.60;96570.00;;;;5070403;28;20206;-61
2023/04/04 09:53:20;;;;;;;2.37;1.00;;;;;4.30;96569.00;;;;5070759;28;20234;-61
2023/04/04 09:55:51;;;;;;;1.50;1.43;;;;;4.70;96572.00;;;;5071937;28;20214;-62
2023/04/04 09:58:23;;;;;;;1.13;1.13;;;;;4.80;96566.00;;;;5072328;28;20267;-61
2023/04/04 10:00:54;;;;;;;0.80;0.80;;;;;5.00;96562.00;;;;5071414;28;20214;-62
2023/04/04 10:03:23;;;;;;;3.10;1.97;;;;;4.90;96564.00;;;;5072126;28;20215;-62
2023/04/04 10:05:57;;;;;;;1.40;1.30;;;;;5.10;96576.00;;;;5071659;28;20195;-61
2023/04/04 10:08:26;;;;;;;0.90;0.90;;;;;4.90;96569.00;;;;5072160;28;20245;-62
2023/04/04 10:10:58;;;;;;;0.90;0.90;;;;;5.40;96558.00;;;;5072005;28;20295;-62
2023/04/04 10:13:27;;;;;;;0.70;0.70;;;;;5.40;96567.00;;;;5071770;28;20211;-61
2023/04/04 10:15:56;;;;;;;0.80;0.80;;;;;5.20;96560.00;;;;5071535;28;20201;-61
2023/04/04 10:18:26;;;;;;;1.57;1.53;;;;;5.40;96524.00;;;;5069901;28;20195;-60
2023/04/04 10:20:55;;;;;;;0.70;0.70;;;;;5.60;96554.00;;;;5071245;28;20192;-60
2023/04/04 10:23:25;;;;;;;0.70;0.70;;;;;5.60;96560.00;;;;5071231;28;20228;-61
2023/04/04 10:25:52;;;;;;;0.90;0.90;;;;;5.90;96552.00;;;;5071129;28;20724;-60
2023/04/04 10:28:20;;;;;;;2.10;1.23;;;;;6.00;96550.00;;;;5071245;28;20191;-61
2023/04/04 10:30:52;;;;;;;0.70;0.70;;;;;6.20;96548.00;;;;5071199;28;20198;-61
2023/04/04 10:33:28;;;;;;;0.90;0.90;;;;;6.30;96552.00;;;;5071181;28;20301;-59
2023/04/04 10:36:01;;;;;;;1.13;1.13;;;;;6.60;96537.00;;;;5071165;28;20192;-65
2023/04/04 10:38:32;;;;;;;0.87;0.87;;;;;6.50;96543.00;;;;5069170;28;20206;-65
2023/04/04 10:41:02;;;;;;;2.07;1.67;;;;;6.30;96529.00;;;;5069949;28;20199;-65
2023/04/04 10:43:32;;;;;;;1.23;1.23;;;;;5.70;96540.00;;;;5071537;28;20219;-65
2023/04/04 10:46:06;;;;;;;0.70;0.70;;;;;5.60;96540.00;;;;5070830;28;20207;-65
2023/04/04 10:48:36;;;;;;;0.70;0.70;;;;;6.20;96550.00;;;;5071485;28;20195;-65
2023/04/04 10:51:06;;;;;;;0.77;0.77;;;;;6.50;96536.00;;;;5070870;28;20624;-64
2023/04/04 10:53:34;;;;;;;0.60;0.60;;;;;6.90;96540.00;;;;5070200;28;20222;-66
2023/04/04 10:56:02;;;;;;;0.87;0.87;;;;;7.30;96537.00;;;;5070997;28;20234;-65
2023/04/04 10:58:30;;;;;;;0.90;0.90;;;;;7.30;96527.00;;;;5071690;28;20210;-65
2023/04/04 11:00:59;;;;;;;0.67;0.67;;;;;7.40;96536.00;;;;5070422;28;20211;-65
2023/04/04 11:03:26;;;;;;;1.70;1.37;;;;;7.20;96530.00;;;;5071239;28;20230;-65
2023/04/04 11:06:00;;;;;;;0.80;0.80;;;;;7.10;96533.00;;;;5070544;28;20191;-65
2023/04/04 11:08:29;;;;;;;1.03;1.03;;;;;7.40;96527.00;;;;5069781;28;20194;-65
2023/04/04 11:10:57;;;;;;;0.60;0.60;;;;;8.10;96528.00;;;;5070510;28;20199;-65
2023/04/04 11:13:28;;;;;;;1.50;1.40;;;;;8.50;96518.00;;;;5070796;28;20215;-65
2023/04/04 11:15:57;;;;;;;1.13;1.13;;;;;8.50;96519.00;;;;5070720;28;20191;-65
2023/04/04 11:18:47;;;;;;;0.80;0.80;;;;;7.60;96516.00;;;;5071084;28;20218;-65
2023/04/04 11:21:18;;;;;;;0.77;0.77;;;;;7.50;96518.00;;;;5069139;28;20192;-63
2023/04/04 11:24:17;;;;;;;0.90;0.90;;;;;7.90;96527.00;;;;5070607;28;20740;-65
2023/04/04 11:26:46;;;;;;;0.70;0.70;;;;;8.00;96522.00;;;;5070530;28;20206;-64
2023/04/04 11:29:23;;;;;;;0.80;0.80;;;;;8.30;96521.00;;;;5070700;28;20203;-65
2023/04/04 11:31:52;;;;;;;1.70;1.60;;;;;8.60;96516.00;;;;5066906;28;20287;-64
2023/04/04 11:34:31;;;;;;;1.00;1.00;;;;;8.80;96512.00;;;;5071239;28;20195;-65
2023/04/04 11:37:16;;;;;;;0.73;0.73;;;;;8.90;96520.00;;;;5068737;28;20282;-65
2023/04/04 11:39:55;;;;;;;1.03;1.00;;;;;9.00;96486.00;;;;5070240;28;20216;-65
2023/04/04 11:42:23;;;;;;;0.60;0.60;;;;;9.30;96524.00;;;;5070842;28;20303;-65
2023/04/04 11:45:03;;;;;;;0.63;0.63;;;;;9.50;96507.00;;;;5070054;28;20195;-65
2023/04/04 11:47:31;;;;;;;0.70;0.70;;;;;9.10;96510.00;;;;5070684;28;20199;-65
2023/04/04 11:50:00;;;;;;;0.80;0.80;;;;;9.50;96513.00;;;;5070690;28;20221;-65
2023/04/04 11:52:34;;;;;;;1.77;1.30;;;;;8.80;96516.00;;;;5072690;28;20219;-64
2023/04/04 11:55:02;;;;;;;1.43;1.33;;;;;9.30;96512.00;;;;5074173;28;20230;-65
2023/04/04 11:57:29;;;;;;;0.83;0.83;;;;;9.80;96511.00;;;;5073134;28;20249;-65
2023/04/04 11:59:58;;;;;;;1.07;1.07;;;;;9.80;96514.00;;;;5073794;28;20199;-65
2023/04/04 12:02:30;;;;;;;0.70;0.70;;;;;10.00;96509.00;;;;5074453;28;20211;-64
2023/04/04 12:04:58;;;;;;;0.50;0.50;;;;;9.80;96514.00;;;;5073645;28;20230;-65
2023/04/04 12:07:25;;;;;;;0.60;0.60;;;;;9.70;96507.00;;;;5074260;28;20211;-65
2023/04/04 12:09:54;;;;;;;0.90;0.90;;;;;9.80;96513.00;;;;5074270;28;20611;-65
2023/04/04 12:12:23;;;;;;;1.10;1.10;;;;;10.10;96515.00;;;;5074267;28;20305;-64
2023/04/04 12:14:50;;;;;;;1.33;1.27;;;;;10.10;96518.00;;;;5073519;28;20704;-65
2023/04/04 12:17:18;;;;;;;0.77;0.77;;;;;10.30;96518.00;;;;5073745;28;20200;-65
2023/04/04 12:19:46;;;;;;;1.07;1.07;;;;;10.20;96516.00;;;;5073771;28;20199;-65
2023/04/04 12:22:13;;;;;;;0.90;0.90;;;;;10.20;96519.00;;;;5074152;28;20638;-64
2023/04/04 12:24:41;;;;;;;0.90;0.90;;;;;10.40;96512.00;;;;5073330;28;20187;-65
2023/04/04 12:27:10;;;;;;;0.90;0.90;;;;;10.30;96510.00;;;;5074024;28;20246;-65